sensor_id;sensor_type;location;lat;lon;timestamp;P1;durP1;ratioP1;P2;durP2;ratioP2
20336;SDS011;10326;53.660;10.200;2023-04-01T00:00:07;5.90;;;4.57;;
20336;SDS011;10326;53.660;10.200;2023-04-01T00:02:38;5.20;;;4.68;;
20336;SDS011;10326;53.660;10.200;2023-04-01T00:05:06;5.60;;;4.70;;
20336;SDS011;10326;53.660;10.200;2023-04-01T00:07:35;5.10;;;4.20;;
20336;SDS011;10326;53.660;10.200;2023-04-01T00:10:03;5.68;;;4.28;;
20336;SDS011;10326;53.660;10.200;2023-04-01T00:12:31;5.05;;;4.43;;
20336;SDS011;10326;53.660;10.200;2023-04-01T00:15:00;6.07;;;4.53;;
20336;SDS011;10326;53.660;10.200;2023-04-01T00:17:27;7.38;;;5.25;;
20336;SDS011;10326;53.660;10.200;2023-04-01T00:19:55;5.78;;;4.90;;
20336;SDS011;10326;53.660;10.200;2023-04-01T00:22:23;7.05;;;5.22;;
20336;SDS011;10326;53.660;10.200;2023-04-01T00:24:51;6.93;;;5.30;;
20336;SDS011;10326;53.660;10.200;2023-04-01T00:27:18;7.90;;;5.20;;
20336;SDS011;10326;53.660;10.200;2023-04-01T00:29:46;6.10;;;5.03;;
20336;SDS011;10326;53.660;10.200;2023-04-01T00:32:15;5.95;;;5.40;;
20336;SDS011;10326;53.660;10.200;2023-04-01T00:34:42;7.07;;;5.50;;
20336;SDS011;10326;53.660;10.200;2023-04-01T00:37:10;6.07;;;5.47;;
20336;SDS011;10326;53.660;10.200;2023-04-01T00:39:37;5.97;;;5.38;;
20336;SDS011;10326;53.660;10.200;2023-04-01T00:42:05;6.50;;;5.47;;
20336;SDS011;10326;53.660;10.200;2023-04-01T00:44:33;6.65;;;5.57;;
20336;SDS011;10326;53.660;10.200;2023-04-01T00:47:00;7.00;;;5.65;;
20336;SDS011;10326;53.660;10.200;2023-04-01T00:49:30;6.63;;;5.80;;
20336;SDS011;10326;53.660;10.200;2023-04-01T00:52:01;6.65;;;6.03;;
20336;SDS011;10326;53.660;10.200;2023-04-01T00:54:31;5.85;;;5.28;;
20336;SDS011;10326;53.660;10.200;2023-04-01T00:57:01;7.43;;;5.75;;
20336;SDS011;10326;53.660;10.200;2023-04-01T00:59:33;7.63;;;5.68;;
20336;SDS011;10326;53.660;10.200;2023-04-01T01:02:05;5.72;;;5.22;;
20336;SDS011;10326;53.660;10.200;2023-04-01T01:04:38;5.88;;;5.25;;
20336;SDS011;10326;53.660;10.200;2023-04-01T01:07:08;6.60;;;5.80;;
20336;SDS011;10326;53.660;10.200;2023-04-01T01:09:48;6.20;;;5.43;;
20336;SDS011;10326;53.660;10.200;2023-04-01T01:12:24;6.05;;;5.18;;
20336;SDS011;10326;53.660;10.200;2023-04-01T01:15:03;6.18;;;5.47;;
20336;SDS011;10326;53.660;10.200;2023-04-01T01:17:44;6.70;;;6.10;;
20336;SDS011;10326;53.660;10.200;2023-04-01T01:20:27;7.13;;;5.88;;
20336;SDS011;10326;53.660;10.200;2023-04-01T01:26:53;6.90;;;5.60;;
20336;SDS011;10326;53.660;10.200;2023-04-01T01:29:38;6.10;;;5.20;;
20336;SDS011;10326;53.660;10.200;2023-04-01T01:32:34;6.63;;;5.25;;
20336;SDS011;10326;53.660;10.200;2023-04-01T01:35:26;6.00;;;5.40;;
20336;SDS011;10326;53.660;10.200;2023-04-01T01:38:00;6.43;;;5.72;;
20336;SDS011;10326;53.660;10.200;2023-04-01T01:40:33;6.25;;;5.45;;
20336;SDS011;10326;53.660;10.200;2023-04-01T01:43:03;6.10;;;5.50;;
20336;SDS011;10326;53.660;10.200;2023-04-01T01:45:33;7.43;;;5.70;;
20336;SDS011;10326;53.660;10.200;2023-04-01T01:48:05;5.85;;;5.07;;
20336;SDS011;10326;53.660;10.200;2023-04-01T01:50:36;6.47;;;5.82;;
20336;SDS011;10326;53.660;10.200;2023-04-01T01:53:07;7.68;;;5.50;;
20336;SDS011;10326;53.660;10.200;2023-04-01T01:55:37;5.75;;;5.15;;
20336;SDS011;10326;53.660;10.200;2023-04-01T01:58:09;6.38;;;5.30;;
20336;SDS011;10326;53.660;10.200;2023-04-01T02:00:44;4.90;;;4.40;;
20336;SDS011;10326;53.660;10.200;2023-04-01T02:03:15;5.55;;;5.00;;
20336;SDS011;10326;53.660;10.200;2023-04-01T02:05:48;6.05;;;5.15;;
20336;SDS011;10326;53.660;10.200;2023-04-01T02:08:20;6.72;;;5.05;;
20336;SDS011;10326;53.660;10.200;2023-04-01T02:10:56;5.80;;;5.28;;
20336;SDS011;10326;53.660;10.200;2023-04-01T02:13:35;6.45;;;5.40;;
20336;SDS011;10326;53.660;10.200;2023-04-01T02:16:09;6.38;;;5.35;;
20336;SDS011;10326;53.660;10.200;2023-04-01T02:18:41;5.35;;;4.85;;
20336;SDS011;10326;53.660;10.200;2023-04-01T02:21:11;5.82;;;5.22;;
20336;SDS011;10326;53.660;10.200;2023-04-01T02:23:40;6.05;;;5.30;;
20336;SDS011;10326;53.660;10.200;2023-04-01T02:26:07;6.30;;;5.43;;
20336;SDS011;10326;53.660;10.200;2023-04-01T02:28:37;6.35;;;5.57;;
20336;SDS011;10326;53.660;10.200;2023-04-01T02:31:07;6.18;;;5.47;;
20336;SDS011;10326;53.660;10.200;2023-04-01T02:33:37;6.35;;;5.68;;
20336;SDS011;10326;53.660;10.200;2023-04-01T02:36:07;6.20;;;5.60;;
20336;SDS011;10326;53.660;10.200;2023-04-01T02:38:40;5.70;;;5.07;;
20336;SDS011;10326;53.660;10.200;2023-04-01T02:41:08;6.40;;;5.80;;
20336;SDS011;10326;53.660;10.200;2023-04-01T02:43:35;7.63;;;6.07;;
20336;SDS011;10326;53.660;10.200;2023-04-01T02:46:04;6.57;;;6.00;;
20336;SDS011;10326;53.660;10.200;2023-04-01T02:48:32;6.13;;;5.53;;
20336;SDS011;10326;53.660;10.200;2023-04-01T02:50:59;6.55;;;5.78;;
20336;SDS011;10326;53.660;10.200;2023-04-01T02:53:29;6.15;;;5.55;;
20336;SDS011;10326;53.660;10.200;2023-04-01T02:55:56;6.63;;;5.82;;
20336;SDS011;10326;53.660;10.200;2023-04-01T02:58:23;8.77;;;5.97;;
20336;SDS011;10326;53.660;10.200;2023-04-01T03:00:51;6.28;;;5.68;;
20336;SDS011;10326;53.660;10.200;2023-04-01T03:03:18;7.35;;;6.35;;
20336;SDS011;10326;53.660;10.200;2023-04-01T03:05:45;6.95;;;6.25;;
20336;SDS011;10326;53.660;10.200;2023-04-01T03:08:12;6.55;;;5.93;;
20336;SDS011;10326;53.660;10.200;2023-04-01T03:10:41;6.07;;;5.55;;
20336;SDS011;10326;53.660;10.200;2023-04-01T03:13:08;6.95;;;6.25;;
20336;SDS011;10326;53.660;10.200;2023-04-01T03:15:36;6.22;;;5.63;;
20336;SDS011;10326;53.660;10.200;2023-04-01T03:18:03;5.97;;;5.38;;
20336;SDS011;10326;53.660;10.200;2023-04-01T03:20:30;5.70;;;5.20;;
20336;SDS011;10326;53.660;10.200;2023-04-01T03:22:58;6.53;;;5.68;;
20336;SDS011;10326;53.660;10.200;2023-04-01T03:25:26;6.97;;;6.00;;
20336;SDS011;10326;53.660;10.200;2023-04-01T03:27:55;9.00;;;6.20;;
20336;SDS011;10326;53.660;10.200;2023-04-01T03:30:24;6.60;;;5.97;;
20336;SDS011;10326;53.660;10.200;2023-04-01T03:32:53;6.30;;;5.70;;
20336;SDS011;10326;53.660;10.200;2023-04-01T03:35:20;6.05;;;5.55;;
20336;SDS011;10326;53.660;10.200;2023-04-01T03:37:47;6.72;;;5.70;;
20336;SDS011;10326;53.660;10.200;2023-04-01T03:40:15;6.28;;;5.65;;
20336;SDS011;10326;53.660;10.200;2023-04-01T03:42:43;6.30;;;5.68;;
20336;SDS011;10326;53.660;10.200;2023-04-01T03:45:12;5.80;;;5.30;;
20336;SDS011;10326;53.660;10.200;2023-04-01T03:47:39;5.90;;;5.30;;
20336;SDS011;10326;53.660;10.200;2023-04-01T03:50:07;5.75;;;5.25;;
20336;SDS011;10326;53.660;10.200;2023-04-01T03:52:35;5.90;;;5.32;;
20336;SDS011;10326;53.660;10.200;2023-04-01T03:55:03;6.13;;;5.15;;
20336;SDS011;10326;53.660;10.200;2023-04-01T03:57:31;5.93;;;5.43;;
20336;SDS011;10326;53.660;10.200;2023-04-01T04:00:07;6.03;;;5.47;;
20336;SDS011;10326;53.660;10.200;2023-04-01T04:02:40;6.03;;;5.45;;
20336;SDS011;10326;53.660;10.200;2023-04-01T04:05:12;5.90;;;5.40;;
20336;SDS011;10326;53.660;10.200;2023-04-01T04:07:39;5.72;;;5.22;;
20336;SDS011;10326;53.660;10.200;2023-04-01T04:10:07;6.68;;;5.30;;
20336;SDS011;10326;53.660;10.200;2023-04-01T04:15:04;5.80;;;5.30;;
20336;SDS011;10326;53.660;10.200;2023-04-01T04:20:09;5.63;;;5.03;;
20336;SDS011;10326;53.660;10.200;2023-04-01T04:22:37;5.22;;;4.75;;
20336;SDS011;10326;53.660;10.200;2023-04-01T04:25:07;5.45;;;4.95;;
20336;SDS011;10326;53.660;10.200;2023-04-01T04:27:35;5.20;;;4.70;;
20336;SDS011;10326;53.660;10.200;2023-04-01T04:30:07;5.20;;;4.80;;
20336;SDS011;10326;53.660;10.200;2023-04-01T04:32:35;5.20;;;4.70;;
20336;SDS011;10326;53.660;10.200;2023-04-01T04:35:04;4.82;;;4.43;;
20336;SDS011;10326;53.660;10.200;2023-04-01T04:37:34;2.90;;;2.70;;
20336;SDS011;10326;53.660;10.200;2023-04-01T04:40:01;2.05;;;1.80;;
20336;SDS011;10326;53.660;10.200;2023-04-01T04:42:30;1.90;;;1.80;;
20336;SDS011;10326;53.660;10.200;2023-04-01T04:45:03;1.63;;;1.52;;
20336;SDS011;10326;53.660;10.200;2023-04-01T04:47:31;1.50;;;1.40;;
20336;SDS011;10326;53.660;10.200;2023-04-01T04:49:58;3.58;;;1.67;;
20336;SDS011;10326;53.660;10.200;2023-04-01T04:52:25;1.55;;;1.45;;
20336;SDS011;10326;53.660;10.200;2023-04-01T04:54:53;1.60;;;1.50;;
20336;SDS011;10326;53.660;10.200;2023-04-01T04:57:20;1.20;;;1.10;;
20336;SDS011;10326;53.660;10.200;2023-04-01T04:59:53;2.80;;;1.30;;
20336;SDS011;10326;53.660;10.200;2023-04-01T05:02:46;1.60;;;1.20;;
20336;SDS011;10326;53.660;10.200;2023-04-01T05:05:14;1.75;;;1.10;;
20336;SDS011;10326;53.660;10.200;2023-04-01T05:07:41;1.85;;;1.33;;
20336;SDS011;10326;53.660;10.200;2023-04-01T05:10:09;1.23;;;1.13;;
20336;SDS011;10326;53.660;10.200;2023-04-01T05:12:37;1.40;;;1.30;;
20336;SDS011;10326;53.660;10.200;2023-04-01T05:15:07;1.50;;;1.40;;
20336;SDS011;10326;53.660;10.200;2023-04-01T05:17:36;1.40;;;1.30;;
20336;SDS011;10326;53.660;10.200;2023-04-01T05:20:03;1.33;;;1.23;;
20336;SDS011;10326;53.660;10.200;2023-04-01T05:22:32;1.02;;;1.00;;
20336;SDS011;10326;53.660;10.200;2023-04-01T05:24:59;1.30;;;1.20;;
20336;SDS011;10326;53.660;10.200;2023-04-01T05:27:29;1.30;;;1.20;;
20336;SDS011;10326;53.660;10.200;2023-04-01T05:29:56;1.40;;;1.30;;
20336;SDS011;10326;53.660;10.200;2023-04-01T05:32:39;1.38;;;1.25;;
20336;SDS011;10326;53.660;10.200;2023-04-01T05:35:10;1.50;;;1.40;;
20336;SDS011;10326;53.660;10.200;2023-04-01T05:37:38;1.50;;;1.40;;
20336;SDS011;10326;53.660;10.200;2023-04-01T05:40:06;1.23;;;1.23;;
20336;SDS011;10326;53.660;10.200;2023-04-01T05:42:36;1.73;;;1.40;;
20336;SDS011;10326;53.660;10.200;2023-04-01T05:45:03;1.05;;;1.05;;
20336;SDS011;10326;53.660;10.200;2023-04-01T05:48:01;1.63;;;1.00;;
20336;SDS011;10326;53.660;10.200;2023-04-01T05:50:32;1.20;;;1.10;;
20336;SDS011;10326;53.660;10.200;2023-04-01T05:53:00;1.42;;;1.33;;
20336;SDS011;10326;53.660;10.200;2023-04-01T05:55:28;1.30;;;1.20;;
20336;SDS011;10326;53.660;10.200;2023-04-01T05:57:56;1.25;;;1.15;;
20336;SDS011;10326;53.660;10.200;2023-04-01T06:00:23;1.17;;;1.08;;
20336;SDS011;10326;53.660;10.200;2023-04-01T06:02:50;1.20;;;1.10;;
20336;SDS011;10326;53.660;10.200;2023-04-01T06:05:19;1.80;;;1.35;;
20336;SDS011;10326;53.660;10.200;2023-04-01T06:07:48;1.35;;;1.25;;
20336;SDS011;10326;53.660;10.200;2023-04-01T06:10:26;1.10;;;1.10;;
20336;SDS011;10326;53.660;10.200;2023-04-01T06:13:10;1.15;;;1.00;;
20336;SDS011;10326;53.660;10.200;2023-04-01T06:15:52;2.03;;;1.00;;
20336;SDS011;10326;53.660;10.200;2023-04-01T06:24:40;1.10;;;0.90;;
20336;SDS011;10326;53.660;10.200;2023-04-01T06:27:24;0.90;;;0.90;;
20336;SDS011;10326;53.660;10.200;2023-04-01T06:30:10;0.90;;;0.90;;
20336;SDS011;10326;53.660;10.200;2023-04-01T06:33:04;0.90;;;0.90;;
20336;SDS011;10326;53.660;10.200;2023-04-01T06:36:15;0.80;;;0.80;;
20336;SDS011;10326;53.660;10.200;2023-04-01T06:39:08;0.90;;;0.82;;
20336;SDS011;10326;53.660;10.200;2023-04-01T06:44:50;1.33;;;1.08;;
20336;SDS011;10326;53.660;10.200;2023-04-01T06:47:52;0.85;;;0.85;;
20336;SDS011;10326;53.660;10.200;2023-04-01T06:51:11;1.20;;;1.00;;
20336;SDS011;10326;53.660;10.200;2023-04-01T06:54:09;0.90;;;0.90;;
20336;SDS011;10326;53.660;10.200;2023-04-01T06:56:59;0.85;;;0.85;;
20336;SDS011;10326;53.660;10.200;2023-04-01T06:59:32;0.93;;;0.93;;
20336;SDS011;10326;53.660;10.200;2023-04-01T07:02:02;1.40;;;1.08;;
20336;SDS011;10326;53.660;10.200;2023-04-01T07:04:44;1.00;;;1.00;;
20336;SDS011;10326;53.660;10.200;2023-04-01T07:07:16;0.90;;;0.90;;
20336;SDS011;10326;53.660;10.200;2023-04-01T07:09:57;1.58;;;1.15;;
20336;SDS011;10326;53.660;10.200;2023-04-01T07:12:31;1.00;;;0.95;;
20336;SDS011;10326;53.660;10.200;2023-04-01T07:15:40;1.00;;;0.90;;
20336;SDS011;10326;53.660;10.200;2023-04-01T07:18:22;0.90;;;0.90;;
20336;SDS011;10326;53.660;10.200;2023-04-01T07:20:58;1.40;;;1.30;;
20336;SDS011;10326;53.660;10.200;2023-04-01T07:23:27;1.42;;;1.10;;
20336;SDS011;10326;53.660;10.200;2023-04-01T07:26:06;1.23;;;1.00;;
20336;SDS011;10326;53.660;10.200;2023-04-01T07:29:04;1.40;;;1.10;;
20336;SDS011;10326;53.660;10.200;2023-04-01T07:31:43;1.30;;;1.20;;
20336;SDS011;10326;53.660;10.200;2023-04-01T07:34:38;1.20;;;1.10;;
20336;SDS011;10326;53.660;10.200;2023-04-01T07:37:21;1.40;;;0.98;;
20336;SDS011;10326;53.660;10.200;2023-04-01T07:39:56;1.15;;;1.08;;
20336;SDS011;10326;53.660;10.200;2023-04-01T07:42:40;1.30;;;1.20;;
20336;SDS011;10326;53.660;10.200;2023-04-01T07:45:29;1.30;;;1.20;;
20336;SDS011;10326;53.660;10.200;2023-04-01T07:48:08;1.42;;;1.20;;
20336;SDS011;10326;53.660;10.200;2023-04-01T07:50:46;0.90;;;0.90;;
20336;SDS011;10326;53.660;10.200;2023-04-01T07:53:24;1.40;;;1.02;;
20336;SDS011;10326;53.660;10.200;2023-04-01T07:56:04;1.42;;;1.33;;
20336;SDS011;10326;53.660;10.200;2023-04-01T07:58:39;1.00;;;1.00;;
20336;SDS011;10326;53.660;10.200;2023-04-01T08:01:40;0.90;;;0.90;;
20336;SDS011;10326;53.660;10.200;2023-04-01T08:04:22;1.40;;;1.15;;
20336;SDS011;10326;53.660;10.200;2023-04-01T08:06:59;1.08;;;0.93;;
20336;SDS011;10326;53.660;10.200;2023-04-01T08:09:42;1.25;;;1.15;;
20336;SDS011;10326;53.660;10.200;2023-04-01T08:12:45;0.73;;;0.73;;
20336;SDS011;10326;53.660;10.200;2023-04-01T08:15:42;1.13;;;1.05;;
20336;SDS011;10326;53.660;10.200;2023-04-01T08:18:32;1.20;;;1.10;;
20336;SDS011;10326;53.660;10.200;2023-04-01T08:21:06;1.10;;;1.00;;
20336;SDS011;10326;53.660;10.200;2023-04-01T08:23:41;1.20;;;1.00;;
20336;SDS011;10326;53.660;10.200;2023-04-01T08:26:17;1.55;;;1.05;;
20336;SDS011;10326;53.660;10.200;2023-04-01T08:28:57;1.30;;;1.20;;
20336;SDS011;10326;53.660;10.200;2023-04-01T08:31:32;1.10;;;0.98;;
20336;SDS011;10326;53.660;10.200;2023-04-01T08:34:03;0.98;;;0.98;;
20336;SDS011;10326;53.660;10.200;2023-04-01T08:36:37;1.05;;;0.98;;
20336;SDS011;10326;53.660;10.200;2023-04-01T08:39:11;1.10;;;1.00;;
20336;SDS011;10326;53.660;10.200;2023-04-01T08:41:56;1.00;;;0.90;;
20336;SDS011;10326;53.660;10.200;2023-04-01T08:45:15;1.00;;;1.00;;
20336;SDS011;10326;53.660;10.200;2023-04-01T08:47:56;1.00;;;1.00;;
20336;SDS011;10326;53.660;10.200;2023-04-01T08:50:56;1.40;;;1.23;;
20336;SDS011;10326;53.660;10.200;2023-04-01T08:53:49;1.45;;;1.17;;
20336;SDS011;10326;53.660;10.200;2023-04-01T08:56:40;1.13;;;1.02;;
20336;SDS011;10326;53.660;10.200;2023-04-01T09:02:53;0.90;;;0.90;;
20336;SDS011;10326;53.660;10.200;2023-04-01T09:05:41;1.02;;;1.00;;
20336;SDS011;10326;53.660;10.200;2023-04-01T09:08:57;1.10;;;1.00;;
20336;SDS011;10326;53.660;10.200;2023-04-01T09:12:12;1.42;;;1.05;;
20336;SDS011;10326;53.660;10.200;2023-04-01T09:15:18;1.17;;;1.08;;
20336;SDS011;10326;53.660;10.200;2023-04-01T09:18:20;1.15;;;1.05;;
20336;SDS011;10326;53.660;10.200;2023-04-01T09:24:19;1.00;;;1.00;;
20336;SDS011;10326;53.660;10.200;2023-04-01T09:27:26;1.13;;;1.05;;
20336;SDS011;10326;53.660;10.200;2023-04-01T09:30:03;1.67;;;1.10;;
20336;SDS011;10326;53.660;10.200;2023-04-01T09:33:11;0.90;;;0.90;;
20336;SDS011;10326;53.660;10.200;2023-04-01T09:39:30;1.02;;;0.93;;
20336;SDS011;10326;53.660;10.200;2023-04-01T09:42:14;0.80;;;0.80;;
20336;SDS011;10326;53.660;10.200;2023-04-01T09:45:29;0.90;;;0.80;;
20336;SDS011;10326;53.660;10.200;2023-04-01T09:48:15;1.95;;;1.35;;
20336;SDS011;10326;53.660;10.200;2023-04-01T09:51:01;0.77;;;0.77;;
20336;SDS011;10326;53.660;10.200;2023-04-01T09:53:45;1.23;;;1.10;;
20336;SDS011;10326;53.660;10.200;2023-04-01T10:10:30;0.98;;;0.90;;
20336;SDS011;10326;53.660;10.200;2023-04-01T10:13:29;0.80;;;0.80;;
20336;SDS011;10326;53.660;10.200;2023-04-01T10:16:43;2.65;;;0.75;;
20336;SDS011;10326;53.660;10.200;2023-04-01T10:19:51;0.93;;;0.73;;
20336;SDS011;10326;53.660;10.200;2023-04-01T10:26:09;0.85;;;0.68;;
20336;SDS011;10326;53.660;10.200;2023-04-01T10:29:41;0.85;;;0.85;;
20336;SDS011;10326;53.660;10.200;2023-04-01T10:35:56;1.10;;;1.00;;
20336;SDS011;10326;53.660;10.200;2023-04-01T10:42:22;1.17;;;1.10;;
20336;SDS011;10326;53.660;10.200;2023-04-01T10:45:59;0.90;;;0.90;;
20336;SDS011;10326;53.660;10.200;2023-04-01T10:56:15;0.85;;;0.85;;
20336;SDS011;10326;53.660;10.200;2023-04-01T10:59:58;1.08;;;0.90;;
20336;SDS011;10326;53.660;10.200;2023-04-01T11:10:59;1.50;;;1.40;;
20336;SDS011;10326;53.660;10.200;2023-04-01T11:17:54;1.58;;;1.48;;
20336;SDS011;10326;53.660;10.200;2023-04-01T11:21:02;1.83;;;1.73;;
20336;SDS011;10326;53.660;10.200;2023-04-01T11:28:18;2.13;;;1.45;;
20336;SDS011;10326;53.660;10.200;2023-04-01T11:31:22;2.45;;;2.15;;
20336;SDS011;10326;53.660;10.200;2023-04-01T11:34:14;2.28;;;2.10;;
20336;SDS011;10326;53.660;10.200;2023-04-01T11:37:01;2.20;;;2.00;;
20336;SDS011;10326;53.660;10.200;2023-04-01T11:39:59;2.70;;;2.40;;
20336;SDS011;10326;53.660;10.200;2023-04-01T11:43:09;2.92;;;2.38;;
20336;SDS011;10326;53.660;10.200;2023-04-01T11:46:07;3.10;;;2.45;;
20336;SDS011;10326;53.660;10.200;2023-04-01T11:48:45;2.40;;;2.20;;
20336;SDS011;10326;53.660;10.200;2023-04-01T11:51:38;2.58;;;2.38;;
20336;SDS011;10326;53.660;10.200;2023-04-01T11:54:28;2.88;;;2.65;;
20336;SDS011;10326;53.660;10.200;2023-04-01T11:57:13;3.08;;;2.78;;
20336;SDS011;10326;53.660;10.200;2023-04-01T12:00:16;3.03;;;2.53;;
20336;SDS011;10326;53.660;10.200;2023-04-01T12:03:02;3.08;;;2.78;;
20336;SDS011;10326;53.660;10.200;2023-04-01T12:05:45;3.05;;;2.67;;
20336;SDS011;10326;53.660;10.200;2023-04-01T12:08:27;3.65;;;2.63;;
20336;SDS011;10326;53.660;10.200;2023-04-01T12:11:07;3.88;;;2.72;;
20336;SDS011;10326;53.660;10.200;2023-04-01T12:13:42;3.33;;;2.92;;
20336;SDS011;10326;53.660;10.200;2023-04-01T12:16:25;2.78;;;2.58;;
20336;SDS011;10326;53.660;10.200;2023-04-01T12:19:07;2.90;;;2.60;;
20336;SDS011;10326;53.660;10.200;2023-04-01T12:21:44;3.33;;;3.03;;
20336;SDS011;10326;53.660;10.200;2023-04-01T12:24:29;3.20;;;2.90;;
20336;SDS011;10326;53.660;10.200;2023-04-01T12:30:19;2.65;;;2.40;;
20336;SDS011;10326;53.660;10.200;2023-04-01T12:33:10;3.30;;;2.83;;
20336;SDS011;10326;53.660;10.200;2023-04-01T12:36:00;3.25;;;2.70;;
20336;SDS011;10326;53.660;10.200;2023-04-01T12:38:40;3.20;;;2.90;;
20336;SDS011;10326;53.660;10.200;2023-04-01T12:41:21;2.72;;;2.53;;
20336;SDS011;10326;53.660;10.200;2023-04-01T12:44:10;3.15;;;2.67;;
20336;SDS011;10326;53.660;10.200;2023-04-01T12:46:59;3.15;;;2.88;;
20336;SDS011;10326;53.660;10.200;2023-04-01T12:49:54;3.38;;;3.05;;
20336;SDS011;10326;53.660;10.200;2023-04-01T12:52:39;4.10;;;3.70;;
20336;SDS011;10326;53.660;10.200;2023-04-01T12:55:35;4.60;;;3.80;;
20336;SDS011;10326;53.660;10.200;2023-04-01T13:02:00;3.38;;;3.03;;
20336;SDS011;10326;53.660;10.200;2023-04-01T13:04:48;3.65;;;3.28;;
20336;SDS011;10326;53.660;10.200;2023-04-01T13:07:46;3.75;;;2.67;;
20336;SDS011;10326;53.660;10.200;2023-04-01T13:10:41;3.50;;;2.70;;
20336;SDS011;10326;53.660;10.200;2023-04-01T13:16:42;3.92;;;2.65;;
20336;SDS011;10326;53.660;10.200;2023-04-01T13:19:19;3.95;;;2.67;;
20336;SDS011;10326;53.660;10.200;2023-04-01T13:21:57;3.60;;;2.90;;
20336;SDS011;10326;53.660;10.200;2023-04-01T13:24:40;4.40;;;3.45;;
20336;SDS011;10326;53.660;10.200;2023-04-01T13:27:14;3.25;;;2.95;;
20336;SDS011;10326;53.660;10.200;2023-04-01T13:29:53;4.00;;;3.55;;
20336;SDS011;10326;53.660;10.200;2023-04-01T13:32:50;5.32;;;3.67;;
20336;SDS011;10326;53.660;10.200;2023-04-01T13:35:30;4.43;;;3.63;;
20336;SDS011;10326;53.660;10.200;2023-04-01T13:41:18;3.92;;;3.28;;
20336;SDS011;10326;53.660;10.200;2023-04-01T13:44:02;3.92;;;3.10;;
20336;SDS011;10326;53.660;10.200;2023-04-01T13:46:42;4.43;;;3.30;;
20336;SDS011;10326;53.660;10.200;2023-04-01T13:49:36;4.25;;;3.65;;
20336;SDS011;10326;53.660;10.200;2023-04-01T13:52:41;4.30;;;3.90;;
20336;SDS011;10326;53.660;10.200;2023-04-01T13:55:35;5.22;;;4.15;;
20336;SDS011;10326;53.660;10.200;2023-04-01T13:58:39;5.28;;;4.30;;
20336;SDS011;10326;53.660;10.200;2023-04-01T14:01:40;6.03;;;4.25;;
20336;SDS011;10326;53.660;10.200;2023-04-01T14:04:34;4.28;;;3.70;;
20336;SDS011;10326;53.660;10.200;2023-04-01T14:07:19;4.25;;;3.67;;
20336;SDS011;10326;53.660;10.200;2023-04-01T14:10:02;4.55;;;3.50;;
20336;SDS011;10326;53.660;10.200;2023-04-01T14:12:38;5.18;;;3.92;;
20336;SDS011;10326;53.660;10.200;2023-04-01T14:15:25;4.30;;;3.90;;
20336;SDS011;10326;53.660;10.200;2023-04-01T14:18:12;5.53;;;3.67;;
20336;SDS011;10326;53.660;10.200;2023-04-01T14:21:12;7.03;;;4.57;;
20336;SDS011;10326;53.660;10.200;2023-04-01T14:23:53;5.07;;;4.35;;
20336;SDS011;10326;53.660;10.200;2023-04-01T14:30:14;7.03;;;4.40;;
20336;SDS011;10326;53.660;10.200;2023-04-01T14:32:59;6.82;;;4.18;;
20336;SDS011;10326;53.660;10.200;2023-04-01T14:35:37;6.28;;;4.50;;
20336;SDS011;10326;53.660;10.200;2023-04-01T14:38:27;5.50;;;4.25;;
20336;SDS011;10326;53.660;10.200;2023-04-01T14:41:10;5.07;;;4.20;;
20336;SDS011;10326;53.660;10.200;2023-04-01T14:43:50;5.38;;;4.07;;
20336;SDS011;10326;53.660;10.200;2023-04-01T14:49:39;6.32;;;4.03;;
20336;SDS011;10326;53.660;10.200;2023-04-01T14:52:10;6.38;;;3.95;;
20336;SDS011;10326;53.660;10.200;2023-04-01T14:54:44;4.82;;;3.80;;
20336;SDS011;10326;53.660;10.200;2023-04-01T14:57:13;5.85;;;4.32;;
20336;SDS011;10326;53.660;10.200;2023-04-01T14:59:47;5.70;;;4.00;;
20336;SDS011;10326;53.660;10.200;2023-04-01T15:02:29;7.20;;;4.22;;
20336;SDS011;10326;53.660;10.200;2023-04-01T15:05:15;5.57;;;3.75;;
20336;SDS011;10326;53.660;10.200;2023-04-01T15:08:00;4.72;;;4.25;;
20336;SDS011;10326;53.660;10.200;2023-04-01T15:10:46;5.88;;;3.78;;
20336;SDS011;10326;53.660;10.200;2023-04-01T15:16:41;5.57;;;4.40;;
20336;SDS011;10326;53.660;10.200;2023-04-01T15:19:24;4.85;;;3.90;;
20336;SDS011;10326;53.660;10.200;2023-04-01T15:22:09;6.20;;;4.20;;
20336;SDS011;10326;53.660;10.200;2023-04-01T15:28:04;6.90;;;3.92;;
20336;SDS011;10326;53.660;10.200;2023-04-01T15:30:38;4.38;;;3.90;;
20336;SDS011;10326;53.660;10.200;2023-04-01T15:33:27;5.13;;;4.18;;
20336;SDS011;10326;53.660;10.200;2023-04-01T15:36:16;6.57;;;4.43;;
20336;SDS011;10326;53.660;10.200;2023-04-01T15:38:58;7.15;;;4.90;;
20336;SDS011;10326;53.660;10.200;2023-04-01T15:41:36;5.38;;;4.30;;
20336;SDS011;10326;53.660;10.200;2023-04-01T15:44:33;5.45;;;4.60;;
20336;SDS011;10326;53.660;10.200;2023-04-01T15:47:26;7.05;;;5.18;;
20336;SDS011;10326;53.660;10.200;2023-04-01T15:50:18;7.55;;;4.68;;
20336;SDS011;10326;53.660;10.200;2023-04-01T15:53:30;5.32;;;4.63;;
20336;SDS011;10326;53.660;10.200;2023-04-01T15:56:25;5.00;;;3.95;;
20336;SDS011;10326;53.660;10.200;2023-04-01T15:59:09;5.45;;;4.28;;
20336;SDS011;10326;53.660;10.200;2023-04-01T16:01:51;5.82;;;4.55;;
20336;SDS011;10326;53.660;10.200;2023-04-01T16:04:36;6.55;;;4.53;;
20336;SDS011;10326;53.660;10.200;2023-04-01T16:07:20;6.95;;;4.40;;
20336;SDS011;10326;53.660;10.200;2023-04-01T16:10:06;6.03;;;4.45;;
20336;SDS011;10326;53.660;10.200;2023-04-01T16:13:03;6.20;;;3.92;;
20336;SDS011;10326;53.660;10.200;2023-04-01T16:15:51;5.85;;;4.25;;
20336;SDS011;10326;53.660;10.200;2023-04-01T16:18:32;5.80;;;4.68;;
20336;SDS011;10326;53.660;10.200;2023-04-01T16:21:24;4.72;;;3.90;;
20336;SDS011;10326;53.660;10.200;2023-04-01T16:24:04;7.10;;;4.78;;
20336;SDS011;10326;53.660;10.200;2023-04-01T16:26:44;6.60;;;4.55;;
20336;SDS011;10326;53.660;10.200;2023-04-01T16:29:21;7.40;;;4.50;;
20336;SDS011;10326;53.660;10.200;2023-04-01T16:32:00;7.00;;;5.07;;
20336;SDS011;10326;53.660;10.200;2023-04-01T16:35:03;6.50;;;4.30;;
20336;SDS011;10326;53.660;10.200;2023-04-01T16:37:55;7.35;;;4.68;;
20336;SDS011;10326;53.660;10.200;2023-04-01T16:40:37;6.07;;;4.60;;
20336;SDS011;10326;53.660;10.200;2023-04-01T16:43:12;5.78;;;4.47;;
20336;SDS011;10326;53.660;10.200;2023-04-01T16:45:52;5.82;;;4.20;;
20336;SDS011;10326;53.660;10.200;2023-04-01T16:48:54;5.03;;;4.07;;
20336;SDS011;10326;53.660;10.200;2023-04-01T16:51:32;6.05;;;4.15;;
20336;SDS011;10326;53.660;10.200;2023-04-01T16:54:05;4.57;;;3.63;;
20336;SDS011;10326;53.660;10.200;2023-04-01T16:56:44;5.18;;;3.42;;
20336;SDS011;10326;53.660;10.200;2023-04-01T16:59:19;5.95;;;3.70;;
20336;SDS011;10326;53.660;10.200;2023-04-01T17:01:52;4.45;;;3.20;;
20336;SDS011;10326;53.660;10.200;2023-04-01T17:04:25;4.72;;;3.60;;
20336;SDS011;10326;53.660;10.200;2023-04-01T17:07:01;4.68;;;3.60;;
20336;SDS011;10326;53.660;10.200;2023-04-01T17:12:40;5.38;;;3.53;;
20336;SDS011;10326;53.660;10.200;2023-04-01T17:15:17;5.57;;;3.70;;
20336;SDS011;10326;53.660;10.200;2023-04-01T17:17:54;4.45;;;3.42;;
20336;SDS011;10326;53.660;10.200;2023-04-01T17:20:32;5.38;;;3.53;;
20336;SDS011;10326;53.660;10.200;2023-04-01T17:23:11;4.05;;;3.15;;
20336;SDS011;10326;53.660;10.200;2023-04-01T17:25:48;4.72;;;3.13;;
20336;SDS011;10326;53.660;10.200;2023-04-01T17:28:47;4.60;;;3.30;;
20336;SDS011;10326;53.660;10.200;2023-04-01T17:31:21;3.88;;;2.90;;
20336;SDS011;10326;53.660;10.200;2023-04-01T17:34:27;4.20;;;3.33;;
20336;SDS011;10326;53.660;10.200;2023-04-01T17:37:10;4.88;;;3.22;;